| time (UTC) | temp F | wind direction | speed knots | gust knots | rain 1hr in | rain 24hr in | rain mn in | humidity % | barometer mb |
| 20260506222003 | 54 | 303 | 3.5 | 9.6 | 0.00 | 0.00 | 0.00 | 92 | |
| 20260506221003 | 55 | 200 | 0.0 | 7.0 | 0.00 | 0.00 | 0.00 | 89 | |
| 20260506220004 | 55 | 283 | 1.7 | 8.7 | 0.00 | 0.00 | 0.00 | 88 | |
| 20260506215003 | 55 | 256 | 1.7 | 8.7 | 0.00 | 0.00 | 0.00 | 86 | |
| 20260506214002 | 55 | 265 | 2.6 | 7.8 | 0.00 | 0.00 | 0.00 | 86 | |
| 20260506213003 | 54 | 238 | 0.0 | 7.0 | 0.00 | 0.00 | 0.00 | 92 | |
| 20260506212003 | 55 | 214 | 0.9 | 3.5 | 0.00 | 0.00 | 0.00 | 90 | |
| 20260506211003 | 55 | 226 | 0.0 | 5.2 | 0.00 | 0.00 | 0.00 | 89 | |
| 20260506210004 | 55 | 203 | 1.7 | 6.1 | 0.00 | 0.00 | 0.00 | 88 | |
| 20260506205003 | 56 | 235 | 0.0 | 2.6 | 0.00 | 0.00 | 0.00 | 88 | |
| 20260506204004 | 55 | 281 | 0.9 | 4.3 | 0.00 | 0.00 | 0.00 | 90 | |
| 20260506203002 | 54 | 290 | 2.6 | 6.1 | 0.00 | 0.00 | 0.00 | 94 | |
| 20260506202003 | 54 | 305 | 4.3 | 7.8 | 0.00 | 0.00 | 0.00 | 95 | |
| 20260506201003 | 54 | 278 | 0.9 | 7.0 | 0.00 | 0.00 | 0.00 | 93 | |
| 20260506200004 | 56 | 172 | 0.9 | 2.6 | 0.00 | 0.00 | 0.00 | 91 | |
| 20260506195003 | 55 | 157 | 0.0 | 3.5 | 0.00 | 0.00 | 0.00 | 96 | |
| 20260506194003 | 54 | 271 | 0.0 | 4.3 | 0.00 | 0.00 | 0.00 | 96 | |
| 20260506193002 | 54 | 272 | 0.9 | 5.2 | 0.00 | 0.00 | 0.00 | 94 | |
| 20260506192002 | 54 | 267 | 1.7 | 5.2 | 0.00 | 0.00 | 0.00 | 93 | |
| 20260506191003 | 54 | 294 | 1.7 | 8.7 | 0.00 | 0.00 | 0.00 | 91 | |
| 20260506190004 | 54 | 306 | 2.6 | 7.8 | 0.00 | 0.00 | 0.00 | 91 | |
| 20260506185003 | 55 | 293 | 0.9 | 2.6 | 0.00 | 0.00 | 0.00 | 89 | |
| 20260506184003 | 55 | 208 | 0.0 | 2.6 | 0.00 | 0.00 | 0.00 | 90 | |
| 20260506183004 | 55 | 134 | 0.0 | 2.6 | 0.00 | 0.00 | 0.00 | 90 | |
| 20260506182002 | 54 | 275 | 0.0 | 4.3 | 0.00 | 0.00 | 0.00 | 90 | |
| 20260506181002 | 54 | 275 | 1.7 | 4.3 | 0.00 | 0.00 | 0.00 | 89 | |
| 20260506180004 | 55 | 158 | 0.0 | 4.3 | 0.00 | 0.00 | 0.00 | 87 | |
| 20260506175003 | 55 | 192 | 0.0 | 3.5 | 0.00 | 0.00 | 0.00 | 87 | |
| 20260506174003 | 55 | 256 | 0.9 | 3.5 | 0.00 | 0.00 | 0.00 | 85 | |
| 20260506173003 | 55 | 302 | 0.0 | 1.7 | 0.00 | 0.00 | 0.00 | 84 | |
| 20260506172003 | 55 | 294 | 1.7 | 5.2 | 0.00 | 0.00 | 0.00 | 84 | |
| 20260506171002 | 55 | 114 | 1.7 | 5.2 | 0.00 | 0.00 | 0.00 | 84 | |
| 20260506170003 | 55 | 191 | 0.0 | 0.9 | 0.00 | 0.00 | 0.00 | 84 | |
| 20260506165003 | 55 | 266 | 0.0 | 2.6 | 0.00 | 0.00 | 0.00 | 85 | |
| 20260506164003 | 55 | 225 | 1.7 | 4.3 | 0.00 | 0.00 | 0.00 | 86 | |
| 20260506163003 | 55 | 222 | 0.9 | 3.5 | 0.00 | 0.00 | 0.00 | 86 | |
| 20260506162003 | 55 | 185 | 0.9 | 2.6 | 0.00 | 0.00 | 0.00 | 87 | |
| 20260506161002 | 55 | 253 | 0.0 | 1.7 | 0.00 | 0.00 | 0.00 | 85 | |
| 20260506160003 | 55 | 104 | 0.0 | 0.9 | 0.00 | 0.00 | 0.00 | 86 | |
| 20260506155003 | 55 | 195 | 0.0 | 1.7 | 0.00 | 0.00 | 0.00 | 84 | |
| 20260506154003 | 55 | 154 | 0.0 | 1.7 | 0.00 | 0.00 | 0.00 | 89 | |
| 20260506153003 | 54 | 124 | 0.0 | 0.9 | 0.00 | 0.00 | 0.00 | 91 | |
| 20260506152003 | 54 | 268 | 0.0 | 2.6 | 0.00 | 0.00 | 0.00 | 90 | |
| 20260506151003 | 54 | 82 | 0.0 | 2.6 | 0.00 | 0.00 | 0.00 | 91 | |
| 20260506150003 | 54 | 275 | 0.0 | 0.0 | 0.00 | 0.00 | 0.00 | 92 | |
| 20260506145002 | 54 | 177 | 0.0 | 0.0 | 0.00 | 0.00 | 0.00 | 94 | |
| 20260506144003 | 54 | 146 | 126.9 | 0.0 | 0.00 | 0.00 | 0.00 | 95 | |
| 20260506143003 | 53 | 125 | 0.0 | 1.7 | 0.00 | 0.00 | 0.00 | 94 | |
| 20260506142003 | 54 | 284 | 0.9 | 3.5 | 0.00 | 0.00 | 0.00 | 96 | |
| 20260506141003 | 53 | 116 | 0.0 | 0.0 | 0.00 | 0.00 | 0.00 | 99 | |
| 20260506140003 | 53 | 108 | 0.0 | 0.0 | 0.00 | 0.00 | 0.00 | 98 | |
| 20260506135003 | 53 | 108 | 0.0 | 1.7 | 0.00 | 0.00 | 0.00 | 94 | |
| 20260506134003 | 53 | 116 | 0.0 | 0.0 | 0.00 | 0.00 | 0.00 | 94 | |
| 20260506133003 | 53 | 239 | 0.0 | 0.0 | 0.00 | 0.00 | 0.00 | 96 | |
| 20260506132003 | 53 | 228 | 0.0 | 1.7 | 0.00 | 0.00 | 0.00 | 97 | |
| 20260506131003 | 53 | 146 | 0.0 | 0.0 | 0.00 | 0.00 | 0.00 | 97 | |
| 20260506130003 | 53 | 176 | 0.0 | 0.0 | 0.00 | 0.00 | 0.00 | 96 | |
| 20260506125007 | 53 | 193 | 0.0 | 0.0 | 0.00 | 0.00 | 0.00 | 97 | |
| 20260506124003 | 53 | 180 | 0.0 | 0.0 | 0.00 | 0.00 | 0.00 | 98 | |
| 20260506123003 | 53 | 185 | 0.0 | 1.7 | 0.00 | 0.00 | 0.00 | 95 | |
| 20260506122003 | 53 | 147 | 0.0 | 1.7 | 0.00 | 0.00 | 0.00 | 98 | |
| 20260506121003 | 53 | 170 | 0.0 | 0.9 | 0.00 | 0.00 | 0.00 | 97 | |
| 20260506120004 | 53 | 179 | 0.0 | 0.9 | 0.00 | 0.00 | 0.00 | 98 | |
| 20260506115003 | 53 | 156 | 0.0 | 0.0 | 0.00 | 0.00 | 0.00 | 98 | |
| 20260506114003 | 53 | 222 | 0.0 | 0.9 | 0.00 | 0.00 | 0.00 | 98 | |
| 20260506113019 | 53 | 175 | 0.0 | 1.7 | 0.00 | 0.00 | 0.00 | 99 | |
| 20260506112002 | 53 | 218 | 1.7 | 2.6 | 0.00 | 0.00 | 0.00 | 99 | |
| 20260506111002 | 53 | 168 | 0.0 | 0.0 | 0.00 | 0.00 | 0.00 | 99 | |
| 20260506110003 | 53 | 155 | 0.0 | 0.9 | 0.00 | 0.00 | 0.00 | 97 | |
| 20260506105003 | 53 | 163 | 0.0 | 0.0 | 0.00 | 0.00 | 0.00 | 96 | |
| 20260506104003 | 53 | 227 | 0.0 | 0.0 | 0.00 | 0.00 | 0.00 | 95 | |
| 20260506103004 | 53 | 139 | 0.0 | 0.9 | 0.00 | 0.00 | 0.00 | 94 | |
| 20260506102002 | 53 | 163 | 0.0 | 0.9 | 0.00 | 0.00 | 0.00 | 94 | |
| 20260506101002 | 53 | 193 | 0.0 | 2.6 | 0.00 | 0.00 | 0.00 | 93 | |
| 20260506100009 | 53 | 183 | 0.0 | 1.7 | 0.00 | 0.00 | 0.00 | 93 | |
| 20260506095003 | 53 | 218 | 0.0 | 0.9 | 0.00 | 0.00 | 0.00 | 98 | |
| 20260506094003 | 53 | 183 | 126.9 | 126.9 | 0.00 | 0.00 | 0.00 | 100 | |
| 20260506093004 | 54 | 206 | 0.0 | 0.0 | 0.00 | 0.00 | 0.00 | 97 | |
| 20260506092002 | 53 | 138 | 0.0 | 0.0 | 0.00 | 0.00 | 0.00 | 97 | |
| 20260506091002 | 53 | 232 | 0.0 | 0.0 | 0.00 | 0.00 | 0.00 | 99 | |
| 20260506090003 | 54 | 164 | 0.0 | 0.0 | 0.00 | 0.00 | 0.00 | 98 | |
| 20260506085003 | 53 | 248 | 126.9 | 0.0 | 0.00 | 0.00 | 0.00 | 99 | |
| 20260506084003 | 53 | 219 | 0.0 | 0.0 | 0.00 | 0.00 | 0.00 | 100 | |
| 20260506083003 | 53 | 189 | 126.9 | 0.0 | 0.00 | 0.00 | 0.00 | 100 | |
| 20260506082003 | 54 | 264 | 0.0 | 0.0 | 0.00 | 0.00 | 0.00 | ||
| 20260506081002 | 54 | 162 | 126.9 | 0.0 | 0.00 | 0.00 | 0.00 | 99 | |
| 20260506073003 | 54 | 227 | 0.9 | 2.6 | 0.00 | 0.00 | 0.00 | 97 | |
| 20260506072003 | 54 | 221 | 126.9 | 0.0 | 0.00 | 0.00 | 0.00 | 98 | |
| 20260506071003 | 54 | 263 | 126.9 | 0.0 | 0.00 | 0.00 | 0.00 | 100 | |
| 20260506062003 | 54 | 186 | 0.0 | 2.6 | 0.00 | 0.00 | 0.00 | 94 | |
| 20260506061003 | 54 | 271 | 0.0 | 1.7 | 0.00 | 0.00 | 0.00 | 98 | |
| 20260506051003 | 55 | 253 | 126.9 | 0.0 | 0.00 | 0.00 | 0.00 | 96 | |
| 20260506045003 | 55 | 170 | 126.9 | 0.0 | 0.00 | 0.00 | 0.00 | 95 | |
| 20260506044002 | 55 | 195 | 126.9 | 0.0 | 0.00 | 0.00 | 0.00 | 96 | |
| 20260506043003 | 55 | 186 | 0.0 | 0.9 | 0.00 | 0.00 | 0.00 | 95 | |
| 20260506042003 | 55 | 194 | 0.0 | 1.7 | 0.00 | 0.00 | 0.00 | 94 | |
| 20260506041003 | 55 | 234 | 0.0 | 3.5 | 0.00 | 0.00 | 0.00 | 94 | |
| 20260506040004 | 55 | 186 | 0.0 | 1.7 | 0.00 | 0.00 | 0.00 | 94 | |
| 20260506035003 | 55 | 292 | 0.9 | 2.6 | 0.00 | 0.00 | 0.00 | 94 | |
| 20260506034003 | 55 | 262 | 0.9 | 3.5 | 0.00 | 0.00 | 0.00 | 94 | |
| 20260506033002 | 55 | 270 | 0.9 | 4.3 | 0.00 | 0.00 | 0.00 | 94 | |
| 20260506032003 | 55 | 269 | 0.0 | 3.5 | 0.00 | 0.00 | 0.00 | 94 | |
| 20260506031003 | 56 | 280 | 0.0 | 4.3 | 0.00 | 0.00 | 0.00 | 94 | |
| 20260506030003 | 55 | 257 | 1.7 | 3.5 | 0.00 | 0.00 | 0.00 | 93 | |
| 20260506025003 | 56 | 287 | 1.7 | 4.3 | 0.00 | 0.00 | 0.00 | 93 | |
| 20260506024003 | 56 | 269 | 0.9 | 2.6 | 0.00 | 0.00 | 0.00 | 92 | |
| 20260506023004 | 57 | 218 | 0.0 | 3.5 | 0.00 | 0.00 | 0.00 | 91 | |
| 20260506022002 | 56 | 232 | 0.9 | 3.5 | 0.00 | 0.00 | 0.00 | 91 | |
| 20260506021003 | 56 | 239 | 0.0 | 1.7 | 0.00 | 0.00 | 0.00 | 91 | |
| 20260506020003 | 57 | 180 | 0.9 | 2.6 | 0.00 | 0.00 | 0.00 | 89 | |
| 20260506015003 | 57 | 170 | 0.9 | 7.0 | 0.00 | 0.00 | 0.00 | 88 | |
| 20260506014003 | 57 | 244 | 0.0 | 3.5 | 0.00 | 0.00 | 0.00 | 87 | |
| 20260506013003 | 58 | 184 | 0.0 | 3.5 | 0.00 | 0.00 | 0.00 | 87 | |
| 20260506012002 | 58 | 275 | 0.9 | 3.5 | 0.00 | 0.00 | 0.00 | 86 | |
| 20260506011002 | 57 | 285 | 1.7 | 4.3 | 0.00 | 0.00 | 0.00 | 88 | |
| 20260506010003 | 57 | 233 | 1.7 | 4.3 | 0.00 | 0.00 | 0.00 | 88 | |
| 20260506005003 | 57 | 268 | 0.9 | 7.0 | 0.00 | 0.00 | 0.00 | 89 | |
| 20260506004003 | 57 | 293 | 2.6 | 6.1 | 0.00 | 0.00 | 0.00 | 89 | |
| 20260506003003 | 57 | 298 | 2.6 | 5.2 | 0.00 | 0.00 | 0.00 | 89 | |
| 20260506002003 | 57 | 300 | 2.6 | 7.0 | 0.00 | 0.00 | 0.00 | 90 | |
| 20260506001002 | 57 | 303 | 1.7 | 6.1 | 0.00 | 0.00 | 0.00 | 87 | |
| 20260506000003 | 57 | 290 | 1.7 | 4.3 | 0.00 | 0.00 | 0.00 | 84 | |
| 20260505235003 | 57 | 291 | 1.7 | 5.2 | 0.00 | 0.00 | 0.00 | 86 | |
| 20260505234003 | 57 | 306 | 3.5 | 6.1 | 0.00 | 0.00 | 0.00 | 87 | |
| 20260505233003 | 57 | 269 | 0.0 | 5.2 | 0.00 | 0.00 | 0.00 | 87 | |
| 20260505232002 | 57 | 303 | 2.6 | 6.1 | 0.00 | 0.00 | 0.00 | 86 | |
| 20260505231002 | 57 | 259 | 1.7 | 7.0 | 0.00 | 0.00 | 0.00 | 88 | |
| 20260505230003 | 57 | 300 | 3.5 | 7.0 | 0.00 | 0.00 | 0.00 | 85 | |
| 20260505225003 | 57 | 288 | 5.2 | 9.6 | 0.00 | 0.00 | 0.00 | 85 | |
| 20260505224003 | 58 | 295 | 1.7 | 5.2 | 0.00 | 0.00 | 0.00 | 83 | |
| 20260505223003 | 58 | 294 | 0.9 | 7.0 | 0.00 | 0.00 | 0.00 | 84 |